Time;durP1;ratioP1;P1;durP2;ratioP2;P2;SDS_P1;SDS_P2;PMS_P1;PMS_P2;Temp;Humidity;BMP_temperature;BMP_pressure;BME280_temperature;BME280_humidity;BME280_pressure;Samples;Min_cycle;Max_cycle;Signal;HPM_P1;HPM_P2
2021/11/10 00:02:24;;;;;;;13.10;7.00;;;7.60;99.90;;;;;;5107994;28;20027;-43
2021/11/10 00:04:50;;;;;;;13.85;7.20;;;7.60;99.90;;;;;;5106408;28;20032;-44
2021/11/10 00:07:15;;;;;;;15.95;7.15;;;7.50;99.90;;;;;;5107521;28;20070;-43
2021/11/10 00:09:41;;;;;;;17.50;7.90;;;7.50;99.90;;;;;;5107359;28;20493;-43
2021/11/10 00:12:07;;;;;;;17.02;7.20;;;7.40;99.90;;;;;;5106894;28;20050;-43
2021/11/10 00:14:33;;;;;;;12.07;6.90;;;7.40;99.90;;;;;;5107109;28;20071;-42
2021/11/10 00:16:58;;;;;;;10.18;6.20;;;7.40;99.90;;;;;;5107390;28;20065;-43
2021/11/10 00:19:24;;;;;;;13.90;7.35;;;7.30;99.90;;;;;;5106134;28;20474;-43
2021/11/10 00:21:50;;;;;;;15.18;7.28;;;7.30;99.90;;;;;;5107132;28;20012;-43
2021/11/10 00:24:16;;;;;;;13.40;8.02;;;7.30;99.90;;;;;;5107600;28;20031;-44
2021/11/10 00:26:41;;;;;;;14.40;7.13;;;7.30;99.90;;;;;;5106899;28;20099;-43
2021/11/10 00:29:07;;;;;;;15.18;7.85;;;7.30;99.90;;;;;;5106439;28;20115;-42
2021/11/10 00:31:33;;;;;;;15.25;7.70;;;7.30;99.90;;;;;;5106892;28;20016;-43
2021/11/10 00:33:59;;;;;;;15.70;7.82;;;7.20;99.90;;;;;;5106516;28;20023;-44
2021/11/10 00:36:24;;;;;;;14.60;8.20;;;7.20;99.90;;;;;;5106483;28;20032;-44
2021/11/10 00:38:50;;;;;;;12.30;8.10;;;7.20;99.90;;;;;;5106712;28;20434;-43
2021/11/10 00:41:15;;;;;;;15.30;7.93;;;7.10;99.90;;;;;;5106703;28;20030;-43
2021/11/10 00:43:41;;;;;;;12.82;8.00;;;7.10;99.90;;;;;;5106855;28;20163;-44
2021/11/10 00:46:10;;;;;;;14.73;7.82;;;7.10;99.90;;;;;;5106515;28;20180;-44
2021/11/10 00:48:36;;;;;;;12.55;7.60;;;7.10;99.90;;;;;;5107067;28;20066;-43
2021/11/10 00:51:02;;;;;;;13.70;8.13;;;7.00;99.90;;;;;;5106234;28;20054;-43
2021/11/10 00:53:28;;;;;;;18.17;8.38;;;7.00;99.90;;;;;;5106341;28;20024;-43
2021/11/10 00:55:54;;;;;;;13.98;7.95;;;6.90;99.90;;;;;;5106465;28;20620;-42
2021/11/10 00:58:19;;;;;;;13.15;7.70;;;6.90;99.90;;;;;;5106864;28;20019;-43
2021/11/10 01:00:45;;;;;;;13.38;8.10;;;6.90;99.90;;;;;;5106221;28;20024;-43
2021/11/10 01:03:12;;;;;;;17.45;8.48;;;6.80;99.90;;;;;;5106357;28;20475;-43
2021/11/10 01:05:39;;;;;;;12.90;7.22;;;6.80;99.90;;;;;;5105898;28;20482;-42
2021/11/10 01:08:05;;;;;;;11.85;7.07;;;6.80;99.90;;;;;;5106337;28;20099;-43
2021/11/10 01:10:31;;;;;;;12.93;7.72;;;6.80;99.90;;;;;;5105712;28;20127;-42
2021/11/10 01:12:57;;;;;;;14.27;7.93;;;6.70;99.90;;;;;;5106263;28;20023;-43
2021/11/10 01:15:23;;;;;;;15.32;8.77;;;6.70;99.90;;;;;;5106242;28;20552;-42
2021/11/10 01:17:49;;;;;;;11.98;7.63;;;6.70;99.90;;;;;;5105845;28;20044;-44
2021/11/10 01:20:15;;;;;;;17.08;9.15;;;6.60;99.90;;;;;;5106413;28;20036;-42
2021/11/10 01:22:41;;;;;;;14.13;8.18;;;6.60;99.90;;;;;;5106089;28;20111;-43
2021/11/10 01:25:10;;;;;;;17.05;8.60;;;6.60;99.90;;;;;;5106746;28;20067;-43
2021/11/10 01:27:36;;;;;;;11.20;7.13;;;6.60;99.90;;;;;;5106142;28;20062;-44
2021/11/10 01:30:04;;;;;;;13.50;7.90;;;6.50;99.90;;;;;;5105467;28;20020;-43
2021/11/10 01:32:33;;;;;;;17.63;8.25;;;6.50;99.90;;;;;;5106385;28;20038;-42
2021/11/10 01:34:58;;;;;;;15.75;8.13;;;6.50;99.90;;;;;;5105432;28;20068;-44
2021/11/10 01:37:24;;;;;;;15.85;8.15;;;6.50;99.90;;;;;;5105999;28;20128;-43
2021/11/10 01:39:50;;;;;;;12.98;8.07;;;6.50;99.90;;;;;;5106000;28;20027;-43
2021/11/10 01:42:15;;;;;;;16.23;8.98;;;6.40;99.90;;;;;;5105301;28;20023;-43
2021/11/10 01:44:41;;;;;;;12.95;7.97;;;6.40;99.90;;;;;;5106552;28;20439;-43
2021/11/10 01:47:09;;;;;;;13.18;8.32;;;6.40;99.90;;;;;;5108247;28;20049;-44
2021/11/10 01:49:36;;;;;;;15.07;8.50;;;6.40;99.90;;;;;;5098247;28;20028;-43
2021/11/10 01:52:03;;;;;;;12.35;8.43;;;6.30;99.90;;;;;;5110510;28;20462;-43
2021/11/10 01:54:31;;;;;;;12.73;7.93;;;6.30;99.90;;;;;;5109210;28;20064;-44
2021/11/10 01:56:57;;;;;;;15.27;8.82;;;6.30;99.90;;;;;;5109454;28;20011;-43
2021/11/10 01:59:29;;;;;;;13.07;7.53;;;6.30;99.90;;;;;;5110274;28;20023;-43
2021/11/10 02:01:58;;;;;;;12.20;7.68;;;6.30;99.90;;;;;;5109642;28;20046;-44
2021/11/10 02:04:28;;;;;;;14.23;8.05;;;6.30;99.90;;;;;;5108505;28;20032;-43
2021/11/10 02:06:53;;;;;;;16.55;8.73;;;6.20;99.90;;;;;;5109988;28;20038;-43
2021/11/10 02:09:22;;;;;;;13.18;8.20;;;6.20;99.90;;;;;;5109536;28;20023;-44
2021/11/10 02:11:49;;;;;;;12.30;8.30;;;6.20;99.90;;;;;;5109768;28;20131;-44
2021/11/10 02:14:17;;;;;;;14.52;9.20;;;6.20;99.90;;;;;;5109634;28;20146;-43
2021/11/10 02:16:42;;;;;;;12.60;7.80;;;6.20;99.90;;;;;;5109250;28;20028;-43
2021/11/10 02:19:09;;;;;;;15.70;8.88;;;6.20;99.90;;;;;;5108652;28;20549;-42
2021/11/10 02:21:36;;;;;;;16.42;8.32;;;6.10;99.90;;;;;;5109912;28;20019;-43
2021/11/10 02:24:02;;;;;;;13.93;8.07;;;6.10;99.90;;;;;;5109483;28;20040;-43
2021/11/10 02:26:27;;;;;;;13.65;8.30;;;6.10;99.90;;;;;;5109091;28;20020;-46
2021/11/10 02:28:53;;;;;;;13.35;8.00;;;6.10;99.90;;;;;;5109151;28;20467;-42
2021/11/10 02:31:18;;;;;;;13.77;8.05;;;6.10;99.90;;;;;;5108872;28;20031;-42
2021/11/10 02:33:44;;;;;;;13.88;8.00;;;6.00;99.90;;;;;;5109119;28;20019;-42
2021/11/10 02:36:11;;;;;;;11.23;7.70;;;6.00;99.90;;;;;;5109172;28;20030;-43
2021/11/10 02:38:38;;;;;;;14.68;8.32;;;6.00;99.90;;;;;;5108451;28;20474;-42
2021/11/10 02:41:09;;;;;;;13.63;7.78;;;6.00;99.90;;;;;;5109345;28;20131;-42
2021/11/10 02:43:35;;;;;;;14.65;8.20;;;6.00;99.90;;;;;;5108690;28;20115;-42
2021/11/10 02:46:01;;;;;;;11.70;7.68;;;5.90;99.90;;;;;;5104919;28;20122;-43
2021/11/10 02:48:26;;;;;;;16.33;7.68;;;6.00;99.90;;;;;;5109124;28;20020;-42
2021/11/10 02:50:52;;;;;;;13.73;9.18;;;5.90;99.90;;;;;;5108570;28;20119;-43
2021/11/10 02:53:21;;;;;;;14.50;8.80;;;5.90;99.90;;;;;;5109011;28;20053;-40
2021/11/10 02:55:46;;;;;;;13.88;8.27;;;5.90;99.90;;;;;;5108430;28;20544;-43
2021/11/10 02:58:12;;;;;;;19.70;8.57;;;5.90;99.90;;;;;;5108214;28;20017;-43
2021/11/10 03:00:38;;;;;;;13.40;8.13;;;5.90;99.90;;;;;;5108106;28;20423;-43
2021/11/10 03:03:04;;;;;;;12.57;7.82;;;5.90;99.90;;;;;;5108503;28;20015;-43
2021/11/10 03:05:31;;;;;;;16.15;8.82;;;5.90;99.90;;;;;;5108289;28;20030;-43
2021/11/10 03:07:57;;;;;;;15.65;8.88;;;5.80;99.90;;;;;;5108246;28;20039;-42
2021/11/10 03:10:22;;;;;;;11.68;8.30;;;5.80;99.90;;;;;;5107966;28;20016;-42
2021/11/10 03:12:48;;;;;;;13.95;8.27;;;5.80;99.90;;;;;;5108401;28;20457;-43
2021/11/10 03:15:14;;;;;;;13.05;7.82;;;5.80;99.90;;;;;;5108186;28;20050;-43
2021/11/10 03:17:40;;;;;;;17.23;9.43;;;5.80;99.90;;;;;;5108164;28;20019;-43
2021/11/10 03:20:07;;;;;;;13.15;8.23;;;5.80;99.90;;;;;;5107859;28;20034;-43
2021/11/10 03:22:34;;;;;;;15.35;10.05;;;5.80;99.90;;;;;;5108008;28;20039;-43
2021/11/10 03:25:00;;;;;;;14.52;8.80;;;5.80;99.90;;;;;;5107577;28;20525;-42
2021/11/10 03:27:26;;;;;;;14.38;8.30;;;5.80;99.90;;;;;;5108433;28;20440;-42
2021/11/10 03:29:53;;;;;;;15.05;8.77;;;5.80;99.90;;;;;;5107808;28;20453;-43
2021/11/10 03:32:20;;;;;;;14.90;8.48;;;5.70;99.90;;;;;;5107775;28;20023;-43
2021/11/10 03:34:46;;;;;;;13.05;7.88;;;5.70;99.90;;;;;;5108373;27;20036;-43
2021/11/10 03:37:13;;;;;;;15.88;8.27;;;5.70;99.90;;;;;;5107549;28;20031;-43
2021/11/10 03:39:39;;;;;;;12.18;8.30;;;5.70;99.90;;;;;;5107902;28;20062;-42
2021/11/10 03:42:05;;;;;;;16.73;8.77;;;5.70;99.90;;;;;;5107237;28;20064;-42
2021/11/10 03:44:34;;;;;;;12.63;8.65;;;5.70;99.90;;;;;;5107713;28;20466;-43
2021/11/10 03:47:02;;;;;;;16.92;8.73;;;5.60;99.90;;;;;;5107882;28;20119;-43
2021/11/10 03:49:29;;;;;;;14.95;8.48;;;5.60;99.90;;;;;;5107378;28;20019;-42
2021/11/10 03:51:55;;;;;;;14.38;9.30;;;5.60;99.90;;;;;;5107787;28;20047;-43
2021/11/10 03:54:21;;;;;;;16.75;9.77;;;5.60;99.90;;;;;;5107741;28;20484;-43
2021/11/10 03:56:47;;;;;;;16.73;10.48;;;5.60;99.90;;;;;;5106826;28;20458;-43
2021/11/10 03:59:13;;;;;;;17.38;10.70;;;5.50;99.90;;;;;;5107982;28;20062;-43
2021/11/10 04:01:40;;;;;;;18.83;10.90;;;5.50;99.90;;;;;;5107207;28;20028;-43
2021/11/10 04:04:06;;;;;;;20.98;11.40;;;5.50;99.90;;;;;;5107410;28;20470;-43
2021/11/10 04:06:32;;;;;;;19.27;11.50;;;5.50;99.90;;;;;;5107450;28;20027;-43
2021/11/10 04:08:58;;;;;;;20.20;11.38;;;5.50;99.90;;;;;;5106285;28;20066;-43
2021/11/10 04:11:24;;;;;;;22.13;12.45;;;5.50;99.90;;;;;;5106765;28;20055;-43
2021/11/10 04:13:53;;;;;;;23.35;12.45;;;5.40;99.90;;;;;;5107212;28;20097;-43
2021/11/10 04:16:22;;;;;;;20.33;11.43;;;5.40;99.90;;;;;;5107796;28;20039;-44
2021/11/10 04:18:50;;;;;;;28.40;13.70;;;5.40;99.90;;;;;;5107423;28;20023;-44
2021/11/10 04:21:17;;;;;;;18.75;11.05;;;5.40;99.90;;;;;;5107332;28;20028;-43
2021/11/10 04:23:43;;;;;;;19.25;10.73;;;5.30;99.90;;;;;;5106567;28;20490;-44
2021/11/10 04:26:08;;;;;;;19.33;11.52;;;5.40;99.90;;;;;;5106948;28;20183;-43
2021/11/10 04:28:34;;;;;;;18.60;11.13;;;5.30;99.90;;;;;;5106698;28;20055;-43
2021/11/10 04:30:59;;;;;;;17.65;11.40;;;5.30;99.90;;;;;;5106840;28;20080;-43
2021/11/10 04:33:25;;;;;;;20.70;10.98;;;5.30;99.90;;;;;;5106598;28;20026;-43
2021/11/10 04:35:51;;;;;;;16.70;10.65;;;5.30;99.90;;;;;;5106538;28;20450;-42
2021/11/10 04:38:17;;;;;;;15.73;10.50;;;5.30;99.90;;;;;;5106700;28;20458;-43
2021/11/10 04:40:43;;;;;;;16.75;10.38;;;5.20;99.90;;;;;;5106624;28;20488;-43
2021/11/10 04:43:09;;;;;;;18.02;9.93;;;5.20;99.90;;;;;;5106524;28;20058;-44
2021/11/10 04:45:37;;;;;;;18.25;9.93;;;5.20;99.90;;;;;;5106402;28;20082;-43
2021/11/10 04:48:03;;;;;;;18.10;9.90;;;5.20;99.90;;;;;;5106729;28;20495;-43
2021/11/10 04:50:30;;;;;;;15.00;10.27;;;5.20;99.90;;;;;;5106230;28;20059;-43
2021/11/10 04:52:57;;;;;;;15.27;9.18;;;5.10;99.90;;;;;;5106659;28;20024;-42
2021/11/10 04:55:22;;;;;;;13.68;9.07;;;5.10;99.90;;;;;;5106695;28;20111;-43
2021/11/10 04:57:48;;;;;;;12.88;8.73;;;5.10;99.90;;;;;;5106439;28;20106;-42
2021/11/10 05:00:14;;;;;;;13.00;9.00;;;5.10;99.90;;;;;;5106402;28;20031;-44
2021/11/10 05:02:40;;;;;;;13.88;8.52;;;5.10;99.90;;;;;;5106540;28;20035;-43
2021/11/10 05:05:06;;;;;;;13.30;8.65;;;5.10;99.90;;;;;;5105907;28;20047;-43
2021/11/10 05:07:32;;;;;;;14.40;9.20;;;5.10;99.90;;;;;;5106617;28;20028;-43
2021/11/10 05:09:58;;;;;;;12.88;8.85;;;5.00;99.90;;;;;;5106221;28;20356;-44
2021/11/10 05:12:24;;;;;;;14.13;9.20;;;5.10;99.90;;;;;;5106099;28;20032;-45
2021/11/10 05:14:55;;;;;;;14.60;9.45;;;5.00;99.90;;;;;;5106084;28;20124;-44
2021/11/10 05:17:21;;;;;;;15.68;8.65;;;5.00;99.90;;;;;;5106486;28;20031;-43
2021/11/10 05:19:47;;;;;;;12.57;8.05;;;5.00;99.90;;;;;;5106731;28;20028;-43
2021/11/10 05:22:14;;;;;;;13.45;8.45;;;5.00;99.90;;;;;;5110263;28;20028;-43
2021/11/10 05:24:40;;;;;;;13.50;8.32;;;5.00;99.90;;;;;;5110067;28;20038;-43
2021/11/10 05:27:06;;;;;;;10.85;8.30;;;5.00;99.90;;;;;;5110729;28;20130;-45
2021/11/10 05:29:31;;;;;;;13.57;8.60;;;5.00;99.90;;;;;;5110200;28;20622;-44
2021/11/10 05:31:56;;;;;;;14.15;8.55;;;5.00;99.90;;;;;;5110376;28;20047;-44
2021/11/10 05:34:23;;;;;;;15.30;8.32;;;4.90;99.90;;;;;;5109364;28;20110;-43
2021/11/10 05:36:49;;;;;;;14.90;8.40;;;4.90;99.90;;;;;;5110286;28;20034;-43
2021/11/10 05:39:16;;;;;;;12.43;8.80;;;4.90;99.90;;;;;;5110942;27;20032;-44
2021/11/10 05:41:44;;;;;;;14.52;8.30;;;4.90;99.90;;;;;;5109868;28;20019;-44
2021/11/10 05:44:10;;;;;;;13.07;8.85;;;4.90;99.90;;;;;;5110084;28;20054;-42
2021/11/10 05:46:35;;;;;;;17.40;8.30;;;4.90;99.90;;;;;;5109965;28;20027;-43
2021/11/10 05:49:01;;;;;;;12.15;8.20;;;4.80;99.90;;;;;;5109734;28;20029;-46
2021/11/10 05:51:26;;;;;;;16.90;8.68;;;4.80;99.90;;;;;;5110258;28;20015;-43
2021/11/10 05:53:54;;;;;;;13.07;8.57;;;4.80;99.90;;;;;;5110478;28;20081;-43
2021/11/10 05:56:21;;;;;;;11.30;7.85;;;4.80;99.90;;;;;;5109718;27;20036;-43
2021/11/10 05:58:48;;;;;;;15.68;8.70;;;4.80;99.90;;;;;;5109947;28;20057;-44
2021/11/10 06:01:14;;;;;;;11.90;8.40;;;4.80;99.90;;;;;;5110032;28;20108;-44
2021/11/10 06:03:39;;;;;;;16.20;8.65;;;4.80;99.90;;;;;;5109196;28;20467;-45
2021/11/10 06:06:05;;;;;;;15.48;8.52;;;4.70;99.90;;;;;;5109683;28;20142;-43
2021/11/10 06:08:36;;;;;;;12.93;8.23;;;4.70;99.90;;;;;;5109647;28;20031;-42
2021/11/10 06:11:02;;;;;;;12.75;9.00;;;4.70;99.90;;;;;;5108964;28;20027;-42
2021/11/10 06:13:27;;;;;;;11.00;8.10;;;4.70;99.90;;;;;;5109201;28;20020;-42
2021/11/10 06:15:53;;;;;;;13.52;9.02;;;4.70;99.90;;;;;;5109528;28;20035;-43
2021/11/10 06:18:18;;;;;;;14.85;8.82;;;4.70;99.90;;;;;;5109198;28;20024;-42
2021/11/10 06:20:44;;;;;;;15.20;9.75;;;4.60;99.90;;;;;;5109257;28;20065;-42
2021/11/10 06:23:09;;;;;;;15.68;9.13;;;4.70;99.90;;;;;;5109516;28;20023;-43
2021/11/10 06:25:35;;;;;;;16.15;9.13;;;4.60;99.90;;;;;;5109144;28;20406;-43
2021/11/10 06:28:00;;;;;;;15.43;8.98;;;4.60;99.90;;;;;;5109206;28;20024;-42
2021/11/10 06:30:26;;;;;;;20.77;10.32;;;4.60;99.90;;;;;;5109396;28;20077;-43
2021/11/10 06:32:51;;;;;;;16.17;9.20;;;4.60;99.90;;;;;;5107835;28;20558;-43
2021/11/10 06:35:18;;;;;;;16.38;10.07;;;4.60;99.90;;;;;;5109183;28;20034;-43
2021/11/10 06:37:43;;;;;;;16.83;10.35;;;4.60;99.90;;;;;;5109050;28;20115;-42
2021/11/10 06:40:10;;;;;;;14.52;9.90;;;4.60;99.90;;;;;;5110849;27;20110;-42
2021/11/10 06:42:36;;;;;;;13.70;9.40;;;4.60;99.90;;;;;;5118733;27;20040;-42
2021/11/10 06:45:04;;;;;;;14.93;9.55;;;4.60;99.90;;;;;;5106131;27;20081;-42
2021/11/10 06:47:29;;;;;;;15.02;9.50;;;4.60;99.90;;;;;;5108385;28;20011;-42
2021/11/10 06:49:57;;;;;;;15.85;10.18;;;4.60;99.90;;;;;;5107263;28;20536;-44
2021/11/10 06:52:22;;;;;;;15.32;10.25;;;4.60;99.90;;;;;;5107962;28;20370;-42
2021/11/10 06:54:50;;;;;;;13.77;9.27;;;4.60;99.90;;;;;;5106960;28;20600;-42
2021/11/10 06:57:17;;;;;;;16.50;9.52;;;4.60;99.90;;;;;;5106776;28;20027;-43
2021/11/10 06:59:43;;;;;;;17.98;10.38;;;4.60;99.90;;;;;;5107418;28;20106;-43
2021/11/10 07:02:09;;;;;;;12.75;9.40;;;4.60;99.90;;;;;;5107848;28;20122;-42
2021/11/10 07:04:36;;;;;;;13.32;9.02;;;4.60;99.90;;;;;;5107204;28;20390;-43
2021/11/10 07:07:04;;;;;;;14.77;8.93;;;4.50;99.90;;;;;;5107856;28;20043;-44
2021/11/10 07:09:30;;;;;;;13.05;9.23;;;4.50;99.90;;;;;;5107412;28;20066;-42
2021/11/10 07:11:56;;;;;;;17.02;9.35;;;4.60;99.90;;;;;;5107078;28;20086;-42
2021/11/10 07:14:23;;;;;;;14.75;8.93;;;4.60;99.90;;;;;;5107327;28;20048;-43
2021/11/10 07:16:48;;;;;;;16.98;9.48;;;4.50;99.90;;;;;;5087515;28;20043;-43
2021/11/10 07:19:14;;;;;;;24.13;10.13;;;4.60;99.90;;;;;;5101475;28;20027;-43
2021/11/10 07:21:39;;;;;;;17.83;9.85;;;4.60;99.90;;;;;;5106830;28;20103;-42
2021/11/10 07:24:05;;;;;;;15.75;9.13;;;4.60;99.90;;;;;;5107189;28;20156;-43
2021/11/10 07:26:32;;;;;;;16.88;10.23;;;4.60;99.90;;;;;;5107354;28;20100;-42
2021/11/10 07:28:58;;;;;;;14.25;10.98;;;4.60;99.90;;;;;;5107213;28;20032;-42
2021/11/10 07:31:23;;;;;;;14.93;10.20;;;4.60;99.90;;;;;;5107986;28;20035;-43
2021/11/10 07:33:49;;;;;;;16.65;10.73;;;4.60;99.90;;;;;;5107487;28;20043;-43
2021/11/10 07:36:15;;;;;;;17.55;10.63;;;4.60;99.90;;;;;;5106174;28;20455;-43
2021/11/10 07:38:41;;;;;;;16.25;9.98;;;4.60;99.90;;;;;;5102876;28;20038;-43
2021/11/10 07:41:08;;;;;;;19.38;10.73;;;4.60;99.90;;;;;;5107333;28;20056;-42
2021/11/10 07:43:34;;;;;;;13.27;10.13;;;4.60;99.90;;;;;;5106626;28;20028;-42
2021/11/10 07:46:09;;;;;;;19.83;10.88;;;4.70;99.90;;;;;;5107082;28;20218;-43
2021/11/10 07:48:35;;;;;;;14.93;10.02;;;4.60;99.90;;;;;;5107110;28;20072;-42
2021/11/10 07:51:00;;;;;;;15.35;9.30;;;4.70;99.90;;;;;;5107423;28;20028;-43
2021/11/10 07:53:26;;;;;;;14.90;9.75;;;4.70;99.90;;;;;;5107556;28;20035;-42
2021/11/10 07:55:51;;;;;;;13.57;8.48;;;4.70;99.90;;;;;;5105903;28;20019;-42
2021/11/10 07:58:17;;;;;;;12.85;8.95;;;4.80;99.90;;;;;;5107873;28;20031;-43
2021/11/10 08:00:45;;;;;;;14.98;9.65;;;4.80;99.90;;;;;;5106651;28;20031;-44
2021/11/10 08:03:10;;;;;;;17.98;9.07;;;4.90;99.90;;;;;;5107233;28;20031;-43
2021/11/10 08:05:36;;;;;;;15.20;9.70;;;5.00;99.90;;;;;;5107223;28;20046;-43
2021/11/10 08:08:02;;;;;;;15.05;9.60;;;5.10;99.90;;;;;;5107637;28;20114;-42
2021/11/10 08:10:28;;;;;;;15.20;9.85;;;5.20;99.90;;;;;;5106920;28;20020;-43
2021/11/10 08:12:53;;;;;;;19.73;11.18;;;5.30;99.90;;;;;;5106187;28;20028;-43
2021/11/10 08:15:19;;;;;;;14.73;9.77;;;5.40;99.90;;;;;;5106078;28;20062;-43
2021/11/10 08:17:45;;;;;;;15.43;9.98;;;5.50;99.90;;;;;;5106067;28;20206;-42
2021/11/10 08:20:14;;;;;;;15.85;10.00;;;5.50;99.90;;;;;;5106805;28;20620;-42
2021/11/10 08:22:40;;;;;;;13.85;9.80;;;5.60;99.90;;;;;;5106056;28;20038;-42
2021/11/10 08:25:07;;;;;;;14.95;9.68;;;5.60;99.90;;;;;;5105400;28;20548;-43
2021/11/10 08:27:35;;;;;;;16.50;10.18;;;5.60;99.90;;;;;;5105208;28;20028;-44
2021/11/10 08:30:11;;;;;;;15.13;9.30;;;5.70;99.90;;;;;;5105710;28;20031;-42
2021/11/10 08:32:36;;;;;;;15.27;9.55;;;5.60;99.90;;;;;;5103100;28;20557;-43
2021/11/10 08:35:03;;;;;;;16.27;9.52;;;5.60;99.90;;;;;;5106821;28;20027;-43
2021/11/10 08:37:31;;;;;;;15.23;9.40;;;5.60;99.90;;;;;;5105997;28;20040;-43
2021/11/10 08:39:57;;;;;;;17.98;10.30;;;5.60;99.90;;;;;;5106674;28;20550;-42
2021/11/10 08:42:24;;;;;;;15.70;9.63;;;5.60;99.90;;;;;;5106583;28;20416;-43
2021/11/10 08:44:52;;;;;;;17.13;9.90;;;5.60;99.90;;;;;;5106256;28;20157;-43
2021/11/10 08:47:21;;;;;;;13.25;9.45;;;5.70;99.90;;;;;;5106959;28;20045;-43
2021/11/10 08:49:46;;;;;;;18.20;11.23;;;5.70;99.90;;;;;;5105973;28;20035;-43
2021/11/10 08:52:12;;;;;;;16.98;10.57;;;5.70;99.90;;;;;;5106078;28;20027;-42
2021/11/10 08:54:41;;;;;;;19.90;11.60;;;5.70;99.90;;;;;;5106655;28;20110;-43
2021/11/10 08:57:06;;;;;;;15.73;9.90;;;5.80;99.90;;;;;;5106581;28;20027;-43
2021/11/10 08:59:32;;;;;;;16.42;10.52;;;5.80;99.90;;;;;;5106488;28;20417;-43
2021/11/10 09:01:58;;;;;;;16.10;10.10;;;5.90;99.90;;;;;;5105917;28;20157;-43
2021/11/10 09:04:24;;;;;;;15.82;10.02;;;5.90;99.90;;;;;;5106491;28;20025;-43
2021/11/10 09:06:50;;;;;;;15.18;9.88;;;6.00;99.90;;;;;;5105658;28;20053;-43
2021/11/10 09:09:17;;;;;;;14.70;9.70;;;6.10;99.90;;;;;;5106924;28;20483;-43
2021/11/10 09:11:44;;;;;;;15.98;9.18;;;6.20;99.90;;;;;;5106252;28;20413;-43
2021/11/10 09:14:10;;;;;;;13.57;8.73;;;6.20;99.90;;;;;;5105515;28;20051;-43
2021/11/10 09:16:37;;;;;;;13.95;9.48;;;6.30;99.90;;;;;;5106393;28;20058;-43
2021/11/10 09:19:03;;;;;;;11.68;8.40;;;6.40;99.90;;;;;;5105977;28;20655;-43
2021/11/10 09:21:29;;;;;;;12.43;8.73;;;6.50;99.90;;;;;;5105952;28;20034;-44
2021/11/10 09:23:55;;;;;;;13.45;9.00;;;6.50;99.90;;;;;;5106449;28;20023;-43
2021/11/10 09:26:20;;;;;;;12.40;8.80;;;6.60;99.90;;;;;;5106037;28;20072;-44
2021/11/10 09:28:46;;;;;;;12.32;9.27;;;6.70;99.90;;;;;;5104374;28;20024;-44
2021/11/10 09:31:15;;;;;;;15.25;9.43;;;6.80;99.90;;;;;;5106207;28;20073;-44
2021/11/10 09:33:42;;;;;;;14.30;9.15;;;7.00;99.90;;;;;;5106993;28;20016;-42
2021/11/10 09:36:09;;;;;;;17.00;9.93;;;7.20;99.90;;;;;;5108441;28;20024;-43
2021/11/10 09:38:35;;;;;;;17.40;10.68;;;7.40;99.90;;;;;;5105769;28;20031;-43
2021/11/10 09:41:01;;;;;;;14.70;9.02;;;7.60;99.90;;;;;;5105911;28;20027;-43
2021/11/10 09:43:38;;;;;;;17.42;10.10;;;7.70;99.90;;;;;;5106030;28;20381;-42
2021/11/10 09:46:06;;;;;;;14.27;9.40;;;7.90;99.90;;;;;;5105744;28;20164;-43
2021/11/10 09:48:32;;;;;;;12.55;8.88;;;8.00;99.90;;;;;;5105413;28;20099;-42
2021/11/10 09:50:57;;;;;;;13.35;8.65;;;8.10;99.90;;;;;;5105581;28;20106;-42
2021/11/10 09:53:23;;;;;;;14.82;9.27;;;8.20;99.90;;;;;;5105657;28;20019;-43
2021/11/10 09:55:50;;;;;;;16.33;9.65;;;8.20;99.90;;;;;;5105558;28;20019;-42
2021/11/10 09:58:16;;;;;;;12.07;8.15;;;8.30;99.90;;;;;;5106494;28;20023;-43
2021/11/10 10:00:47;;;;;;;11.73;8.40;;;8.30;99.90;;;;;;5106999;28;20011;-43
2021/11/10 10:03:13;;;;;;;14.25;8.82;;;8.30;99.90;;;;;;5119097;27;20356;-43
2021/11/10 10:05:39;;;;;;;15.30;9.10;;;8.30;99.90;;;;;;5104397;28;20472;-42
2021/11/10 10:08:05;;;;;;;14.73;8.73;;;8.40;99.90;;;;;;5108128;28;20019;-42
2021/11/10 10:10:33;;;;;;;12.38;7.80;;;8.40;99.90;;;;;;5108861;28;20030;-43
2021/11/10 10:13:03;;;;;;;12.35;8.80;;;8.50;99.90;;;;;;5109820;28;20364;-43
2021/11/10 10:15:32;;;;;;;13.13;8.98;;;8.60;99.90;;;;;;5108841;28;20047;-43
2021/11/10 10:17:58;;;;;;;15.25;8.52;;;8.70;99.90;;;;;;5109692;28;20098;-42
2021/11/10 10:20:31;;;;;;;14.95;8.88;;;8.80;99.90;;;;;;5107355;28;20027;-42
2021/11/10 10:23:00;;;;;;;16.85;8.90;;;8.80;99.90;;;;;;5109497;28;20035;-43
2021/11/10 10:25:41;;;;;;;10.00;8.30;;;8.90;99.90;;;;;;5108880;28;20387;-44
2021/11/10 10:28:09;;;;;;;12.35;8.82;;;9.00;99.90;;;;;;5108635;28;20031;-43
2021/11/10 10:30:43;;;;;;;11.82;6.97;;;9.00;99.90;;;;;;5108146;28;20016;-43
2021/11/10 10:33:15;;;;;;;15.00;8.00;;;9.00;99.90;;;;;;5108830;28;20520;-43
2021/11/10 10:35:52;;;;;;;15.90;8.83;;;9.00;99.90;;;;;;5108438;28;20016;-43
2021/11/10 10:38:21;;;;;;;13.48;8.13;;;9.00;99.90;;;;;;5108784;28;20305;-44
2021/11/10 10:40:49;;;;;;;14.25;9.07;;;9.00;99.90;;;;;;5108547;28;20027;-43
2021/11/10 10:43:17;;;;;;;15.27;8.52;;;9.00;99.90;;;;;;5109824;28;20019;-43
2021/11/10 10:45:48;;;;;;;10.77;7.65;;;9.00;99.90;;;;;;5108302;28;20039;-44
2021/11/10 10:48:18;;;;;;;15.35;9.00;;;9.00;99.90;;;;;;5109382;28;20100;-44
2021/11/10 10:50:48;;;;;;;15.10;9.38;;;9.10;99.90;;;;;;5108373;28;20035;-43
2021/11/10 10:53:17;;;;;;;12.80;8.07;;;9.30;99.90;;;;;;5106218;28;20039;-44
2021/11/10 10:55:47;;;;;;;16.17;9.00;;;9.40;99.90;;;;;;5108191;28;20030;-43
2021/11/10 10:58:33;;;;;;;10.52;7.72;;;9.50;99.90;;;;;;5108922;28;20027;-44
2021/11/10 11:01:19;;;;;;;15.05;8.88;;;9.70;99.90;;;;;;5108583;28;20028;-43
2021/11/10 11:03:50;;;;;;;15.05;8.32;;;9.80;99.90;;;;;;5108294;28;20073;-42
2021/11/10 11:06:27;;;;;;;14.88;8.65;;;9.90;99.90;;;;;;5108931;28;20134;-43
2021/11/10 11:08:53;;;;;;;13.98;7.88;;;10.00;99.90;;;;;;5107954;28;20019;-43
2021/11/10 11:11:35;;;;;;;17.30;8.32;;;10.10;99.90;;;;;;5108922;28;20485;-43
2021/11/10 11:14:01;;;;;;;16.00;9.20;;;10.20;99.90;;;;;;5108073;27;20093;-42
2021/11/10 11:16:41;;;;;;;16.73;8.80;;;10.20;99.90;;;;;;5107639;28;20786;-43
2021/11/10 11:19:18;;;;;;;13.95;7.93;;;10.30;99.90;;;;;;5107743;28;20038;-43
2021/11/10 11:21:53;;;;;;;12.80;8.85;;;10.30;99.90;;;;;;5108171;28;20038;-43
2021/11/10 11:24:31;;;;;;;14.98;8.30;;;10.30;99.90;;;;;;5108503;28;20035;-43
2021/11/10 11:27:12;;;;;;;12.70;7.93;;;10.30;99.90;;;;;;5107569;28;20020;-42
2021/11/10 11:29:37;;;;;;;14.90;7.63;;;10.30;99.90;;;;;;5107783;28;20102;-43
2021/11/10 11:32:22;;;;;;;13.70;7.15;;;10.30;99.90;;;;;;5107887;28;20515;-43
2021/11/10 11:34:50;;;;;;;12.20;7.95;;;10.20;99.90;;;;;;5108029;28;20028;-43
2021/11/10 11:37:20;;;;;;;12.98;7.28;;;10.20;99.90;;;;;;5108132;28;20031;-44
2021/11/10 11:39:45;;;;;;;14.00;7.75;;;10.10;99.90;;;;;;5108090;28;20474;-43
2021/11/10 11:42:11;;;;;;;11.95;7.32;;;10.10;99.90;;;;;;5106413;28;20083;-42
2021/11/10 11:44:37;;;;;;;12.68;7.93;;;10.10;99.90;;;;;;5107902;28;20078;-42
2021/11/10 11:47:05;;;;;;;8.55;6.68;;;10.10;99.90;;;;;;5107384;28;20077;-44
2021/11/10 11:49:31;;;;;;;12.57;8.43;;;10.10;99.90;;;;;;5107591;28;20024;-42
2021/11/10 11:51:57;;;;;;;11.55;7.50;;;10.20;99.90;;;;;;5107465;28;20031;-44
2021/11/10 11:54:23;;;;;;;15.95;9.13;;;10.20;99.90;;;;;;5107144;28;20138;-44
2021/11/10 11:56:49;;;;;;;12.23;8.07;;;10.20;99.90;;;;;;5108237;28;20028;-44
2021/11/10 11:59:15;;;;;;;16.15;8.73;;;10.30;99.90;;;;;;5106428;28;20023;-44
2021/11/10 12:01:41;;;;;;;13.82;8.48;;;10.30;99.90;;;;;;5107232;28;20074;-43
2021/11/10 12:04:12;;;;;;;10.68;7.68;;;10.40;99.90;;;;;;5106297;28;20023;-43
2021/11/10 12:06:50;;;;;;;12.30;8.68;;;10.50;99.90;;;;;;5107720;28;20032;-44
2021/11/10 12:09:20;;;;;;;16.02;9.88;;;10.60;99.90;;;;;;5106283;28;20068;-43
2021/11/10 12:11:52;;;;;;;14.93;9.70;;;10.70;99.90;;;;;;5105794;28;20482;-43
2021/11/10 12:14:37;;;;;;;15.32;9.30;;;10.80;99.90;;;;;;5106282;28;20035;-42
2021/11/10 12:17:13;;;;;;;16.73;9.82;;;11.00;99.90;;;;;;5103466;28;20115;-43
2021/11/10 12:19:53;;;;;;;12.93;8.50;;;11.20;99.90;;;;;;5105996;28;20076;-43
2021/11/10 12:22:24;;;;;;;15.10;9.75;;;11.20;99.90;;;;;;5106278;28;20023;-43
2021/11/10 12:24:53;;;;;;;12.82;8.93;;;11.40;99.90;;;;;;5106777;28;20122;-43
2021/11/10 12:27:35;;;;;;;12.63;9.43;;;11.40;99.90;;;;;;5107179;28;20027;-43
2021/11/10 12:30:23;;;;;;;12.93;8.55;;;11.50;99.90;;;;;;5105539;28;20070;-43
2021/11/10 12:32:59;;;;;;;12.40;8.55;;;11.60;99.90;;;;;;5106973;28;20080;-43
2021/11/10 12:35:29;;;;;;;12.93;8.93;;;11.70;99.90;;;;;;5105516;28;20856;-43
2021/11/10 12:37:56;;;;;;;13.73;8.82;;;11.80;99.90;;;;;;5105610;28;20023;-42
2021/11/10 12:40:29;;;;;;;14.23;9.18;;;11.80;99.90;;;;;;5105167;28;20051;-43
2021/11/10 12:43:01;;;;;;;16.67;10.25;;;11.80;99.90;;;;;;5104739;28;20482;-42
2021/11/10 12:45:40;;;;;;;12.10;8.35;;;11.80;99.90;;;;;;5105428;27;20035;-43